createdAt,value
2023-01-23T00:03:57.625Z,95.20
2023-01-23T00:08:59.628Z,95.20
2023-01-23T00:14:02.579Z,95.20
2023-01-23T00:19:04.470Z,95.30
2023-01-23T00:24:07.240Z,95.20
2023-01-23T00:29:09.390Z,95.20
2023-01-23T00:34:14.077Z,95.20
2023-01-23T00:39:20.336Z,95.30
2023-01-23T00:44:22.181Z,95.30
2023-01-23T00:49:24.783Z,95.20
2023-01-23T00:54:26.733Z,95.20
2023-01-23T00:59:28.708Z,95.20
2023-01-23T01:04:30.626Z,95.20
2023-01-23T01:09:32.614Z,95.20
2023-01-23T01:14:34.873Z,95.20
2023-01-23T01:19:37.153Z,95.10
2023-01-23T01:24:42.211Z,95.10
2023-01-23T01:29:47.606Z,95.10
2023-01-23T01:34:51.976Z,95.00
2023-01-23T01:39:53.793Z,95.00
2023-01-23T01:45:01.335Z,94.90
2023-01-23T01:50:06.459Z,94.90
2023-01-23T01:55:08.712Z,94.90
2023-01-23T02:00:17.951Z,94.90
2023-01-23T02:05:23.734Z,94.80
2023-01-23T02:10:25.689Z,94.70
2023-01-23T02:15:27.791Z,94.70
2023-01-23T02:20:30.166Z,94.70
2023-01-23T02:25:44.252Z,94.60
2023-01-23T02:30:50.583Z,94.70
2023-01-23T02:35:55.360Z,94.60
2023-01-23T02:41:02.350Z,94.60
2023-01-23T02:46:10.595Z,94.40
2023-01-23T02:51:12.662Z,94.50
2023-01-23T02:56:15.416Z,94.40
2023-01-23T03:01:20.336Z,94.30
2023-01-23T03:06:22.488Z,94.30
2023-01-23T03:11:25.904Z,94.30
2023-01-23T03:16:28.875Z,94.20
2023-01-23T03:21:32.580Z,94.20
2023-01-23T03:26:34.559Z,94.20
2023-01-23T03:31:36.462Z,94.20
2023-01-23T03:36:39.060Z,94.10
2023-01-23T03:41:42.114Z,94.20
2023-01-23T03:46:44.285Z,94.20
2023-01-23T03:51:47.236Z,94.20
2023-01-23T03:56:49.195Z,94.10
2023-01-23T04:02:11.413Z,94.10
2023-01-23T04:07:13.459Z,94.00
2023-01-23T04:12:17.814Z,93.90
2023-01-23T04:17:23.422Z,93.80
2023-01-23T04:22:26.453Z,93.80
2023-01-23T04:27:28.391Z,93.80
2023-01-23T04:32:31.438Z,93.70
2023-01-23T04:37:33.514Z,93.60
2023-01-23T04:42:35.415Z,93.60
2023-01-23T04:47:41.873Z,93.70
2023-01-23T04:52:46.675Z,93.80
2023-01-23T04:57:48.867Z,93.80
2023-01-23T05:02:59.243Z,93.80
2023-01-23T05:08:01.921Z,93.70
2023-01-23T05:13:05.946Z,93.70
2023-01-23T05:18:07.879Z,93.70
2023-01-23T05:23:10.970Z,93.80
2023-01-23T05:28:22.141Z,93.70
2023-01-23T05:33:29.500Z,93.60
2023-01-23T05:38:31.521Z,93.60
2023-01-23T05:43:34.247Z,93.70
2023-01-23T05:48:39.000Z,93.60
2023-01-23T05:53:44.986Z,93.70
2023-01-23T05:58:48.029Z,93.80
2023-01-23T06:03:59.270Z,93.80
2023-01-23T06:09:12.388Z,93.70
2023-01-23T06:14:15.893Z,93.70
2023-01-23T06:19:26.311Z,93.70
2023-01-23T06:24:29.426Z,93.80
2023-01-23T06:29:32.019Z,93.70
2023-01-23T06:34:40.389Z,93.70
2023-01-23T06:39:45.388Z,93.70
2023-01-23T06:44:49.633Z,93.70
2023-01-23T06:49:52.033Z,93.70
2023-01-23T06:54:54.480Z,93.80
2023-01-23T06:59:56.635Z,93.80
2023-01-23T07:04:59.222Z,93.80
2023-01-23T07:10:02.600Z,93.80
2023-01-23T07:15:07.214Z,93.80
2023-01-23T07:20:14.405Z,93.80
2023-01-23T07:25:24.421Z,93.90
2023-01-23T07:30:27.048Z,93.90
2023-01-23T07:35:29.014Z,94.00
2023-01-23T07:40:30.822Z,94.00
2023-01-23T07:45:32.688Z,94.00
2023-01-23T07:50:35.727Z,94.00
2023-01-23T07:55:40.363Z,94.10
2023-01-23T08:00:42.338Z,94.40
2023-01-23T08:05:48.945Z,94.10
2023-01-23T08:10:50.807Z,94.10
2023-01-23T08:15:53.432Z,94.10
2023-01-23T08:21:00.725Z,94.60
2023-01-23T08:26:05.882Z,94.30
2023-01-23T08:31:09.799Z,94.40
2023-01-23T08:36:13.318Z,94.40
2023-01-23T08:41:15.621Z,94.50
2023-01-23T08:46:18.009Z,94.60
2023-01-23T08:51:20.212Z,94.60
2023-01-23T08:56:23.801Z,94.60
2023-01-23T09:01:27.284Z,94.70
2023-01-23T09:06:29.645Z,94.70
2023-01-23T09:11:31.566Z,94.60
2023-01-23T09:16:33.584Z,95.00
2023-01-23T09:21:35.572Z,94.60
2023-01-23T09:26:38.204Z,94.60
2023-01-23T09:31:40.044Z,94.70
2023-01-23T09:36:43.496Z,94.70
2023-01-23T09:41:47.480Z,94.70
2023-01-23T09:46:57.972Z,94.80
2023-01-23T09:52:22.534Z,94.80
2023-01-23T09:57:31.113Z,94.90
2023-01-23T10:02:34.361Z,94.90
2023-01-23T10:08:07.621Z,94.90
2023-01-23T10:13:19.913Z,94.90
2023-01-23T10:19:01.838Z,94.90
2023-01-23T10:24:27.638Z,95.00
2023-01-23T10:29:43.805Z,95.00
2023-01-23T10:34:53.845Z,95.10
2023-01-23T10:40:41.459Z,95.10
2023-01-23T10:45:45.594Z,95.20
2023-01-23T10:50:47.468Z,95.20
2023-01-23T10:55:51.633Z,95.20
2023-01-23T11:00:53.629Z,95.30
2023-01-23T11:06:10.032Z,95.20
2023-01-23T11:11:14.752Z,95.30
2023-01-23T11:16:20.658Z,95.30
2023-01-23T11:21:33.106Z,95.40
2023-01-23T11:26:36.867Z,95.40
2023-01-23T11:31:41.774Z,95.40
2023-01-23T11:37:02.599Z,95.50
2023-01-23T11:42:04.727Z,95.50
2023-01-23T11:47:27.934Z,95.50
2023-01-23T11:52:38.787Z,95.60
2023-01-23T11:57:55.780Z,95.60
2023-01-23T12:03:36.356Z,95.60
2023-01-23T12:08:44.151Z,95.70
2023-01-23T12:14:02.904Z,95.60
2023-01-23T12:19:26.550Z,95.70
2023-01-23T12:24:54.619Z,95.70
2023-01-23T12:30:10.941Z,95.60
2023-01-23T12:35:26.283Z,95.70
2023-01-23T12:40:44.901Z,95.70
2023-01-23T12:45:59.525Z,95.70
2023-01-23T12:51:14.336Z,95.80
2023-01-23T12:56:36.457Z,95.80
2023-01-23T13:02:00.897Z,95.80
2023-01-23T13:07:32.145Z,95.80
2023-01-23T13:12:34.751Z,95.90
2023-01-23T13:17:41.046Z,95.90
2023-01-23T13:22:42.933Z,95.90
2023-01-23T13:27:57.882Z,96.00
2023-01-23T13:33:21.201Z,96.00
2023-01-23T13:38:23.087Z,96.00
2023-01-23T13:43:53.065Z,96.00
2023-01-23T14:22:07.873Z,96.10
2023-01-23T14:27:52.299Z,96.10
2023-01-23T14:32:55.422Z,96.10
2023-01-23T14:38:01.018Z,96.10
2023-01-23T14:43:07.960Z,96.20
2023-01-23T14:48:16.332Z,96.30
2023-01-23T14:53:18.247Z,96.50
2023-01-23T14:58:25.259Z,96.20
2023-01-23T15:03:45.290Z,96.30
2023-01-23T15:08:48.526Z,96.30
2023-01-23T15:13:55.202Z,96.30
2023-01-23T15:19:05.016Z,96.30
2023-01-23T15:24:09.731Z,96.40
2023-01-23T15:29:11.570Z,96.40
2023-01-23T15:34:16.542Z,96.40
2023-01-23T15:39:24.373Z,96.40
2023-01-23T15:44:29.234Z,96.50
2023-01-23T15:49:32.656Z,96.50
2023-01-23T15:54:36.309Z,96.50
2023-01-23T15:59:38.473Z,96.50
2023-01-23T16:04:40.383Z,96.50
2023-01-23T16:09:45.575Z,96.50
2023-01-23T16:14:48.228Z,96.60
2023-01-23T16:19:50.745Z,96.60
2023-01-23T16:24:53.410Z,96.60
2023-01-23T16:29:56.112Z,96.60
2023-01-23T16:34:57.961Z,96.60
2023-01-23T16:39:59.883Z,96.70
2023-01-23T16:45:01.774Z,96.70
2023-01-23T16:50:03.812Z,96.70
2023-01-23T16:55:16.194Z,96.80
2023-01-23T17:00:34.063Z,96.80
2023-01-23T17:05:37.362Z,96.70
2023-01-23T17:10:46.152Z,96.80
2023-01-23T17:15:54.388Z,96.80
2023-01-23T17:20:57.426Z,97.10
2023-01-23T17:26:01.312Z,96.90
2023-01-23T17:31:05.267Z,96.90
2023-01-23T17:36:07.658Z,96.90
2023-01-23T17:41:16.208Z,97.00
2023-01-23T17:46:26.939Z,97.00
2023-01-23T17:51:28.842Z,97.00
2023-01-23T17:56:30.764Z,97.10
2023-01-23T18:01:32.662Z,97.10
2023-01-23T18:06:34.462Z,97.10
2023-01-23T18:11:38.928Z,97.20
2023-01-23T18:16:45.182Z,97.20
2023-01-23T18:21:49.660Z,97.50
2023-01-23T18:27:10.935Z,97.30
2023-01-23T18:33:03.695Z,97.30
2023-01-23T18:38:08.157Z,97.40
2023-01-23T18:43:42.026Z,97.40
2023-01-23T18:48:45.702Z,97.40
2023-01-23T18:54:15.488Z,97.40
2023-01-23T18:59:26.588Z,97.40
2023-01-23T19:04:34.654Z,97.50
2023-01-23T19:09:38.188Z,97.50
2023-01-23T19:15:05.489Z,97.50
2023-01-23T19:20:22.166Z,97.50
2023-01-23T19:25:24.373Z,97.60
2023-01-23T19:30:26.728Z,97.60
2023-01-23T19:35:28.766Z,97.60
2023-01-23T19:40:30.891Z,97.60
2023-01-23T19:45:33.909Z,97.60
2023-01-23T19:50:36.019Z,97.60
2023-01-23T19:55:38.419Z,97.60
2023-01-23T20:00:40.329Z,97.60
2023-01-23T20:05:42.525Z,97.60
2023-01-23T20:10:44.424Z,97.60
2023-01-23T20:15:48.581Z,97.60
2023-01-23T20:20:50.418Z,97.60
2023-01-23T20:26:01.958Z,97.60
2023-01-23T20:31:15.267Z,97.70
2023-01-23T20:36:17.221Z,97.70
2023-01-23T20:41:20.481Z,97.70
2023-01-23T20:46:22.636Z,97.70
2023-01-23T20:51:24.680Z,97.70
2023-01-23T20:56:29.481Z,97.80
2023-01-23T21:01:56.453Z,97.80
2023-01-23T21:06:58.532Z,97.80
2023-01-23T21:12:00.473Z,97.80
2023-01-23T21:17:05.266Z,97.80
2023-01-23T21:22:07.697Z,97.80
2023-01-23T21:27:09.835Z,97.80
2023-01-23T21:32:11.677Z,97.90
2023-01-23T21:37:13.493Z,97.90
2023-01-23T21:42:15.332Z,97.90
2023-01-23T21:47:17.202Z,97.90
2023-01-23T21:52:19.094Z,97.90
2023-01-23T21:57:21.015Z,97.90
2023-01-23T22:02:22.956Z,97.90
2023-01-23T22:07:24.851Z,98.20
2023-01-23T22:12:28.044Z,97.90
2023-01-23T22:17:30.928Z,98.00
2023-01-23T22:22:33.055Z,97.90
2023-01-23T22:27:35.113Z,97.90
2023-01-23T22:32:37.047Z,98.00
2023-01-23T22:37:41.298Z,98.00
2023-01-23T22:42:43.094Z,98.00
2023-01-23T22:47:44.904Z,98.00
2023-01-23T22:52:46.873Z,98.10
2023-01-23T22:57:48.722Z,98.00
2023-01-23T23:02:50.627Z,98.10
2023-01-23T23:07:52.480Z,98.00
2023-01-23T23:12:54.899Z,98.10
2023-01-23T23:17:56.831Z,98.00
2023-01-23T23:22:59.058Z,98.10
2023-01-23T23:28:00.921Z,98.00
2023-01-23T23:33:02.841Z,98.00
2023-01-23T23:38:04.733Z,98.00
2023-01-23T23:43:07.042Z,98.10
2023-01-23T23:48:10.209Z,98.20
2023-01-23T23:53:12.102Z,98.10
2023-01-23T23:58:14.253Z,98.10
